createdAt,value
2023-11-24T00:00:33.137Z,9.50
2023-11-24T00:03:01.631Z,9.40
2023-11-24T00:05:28.582Z,9.40
2023-11-24T00:07:55.513Z,9.40
2023-11-24T00:10:22.994Z,9.40
2023-11-24T00:12:51.127Z,9.40
2023-11-24T00:15:18.263Z,9.40
2023-11-24T00:17:45.274Z,9.40
2023-11-24T00:20:15.442Z,9.40
2023-11-24T00:22:42.544Z,9.40
2023-11-24T00:25:10.564Z,9.40
2023-11-24T00:27:38.349Z,9.50
2023-11-24T00:30:08.759Z,9.50
2023-11-24T00:32:36.068Z,9.60
2023-11-24T00:35:03.095Z,9.60
2023-11-24T00:37:31.314Z,9.70
2023-11-24T00:39:58.355Z,9.70
2023-11-24T00:42:25.384Z,9.80
2023-11-24T00:44:52.459Z,9.80
2023-11-24T00:47:19.418Z,9.90
2023-11-24T00:49:48.974Z,9.90
2023-11-24T00:52:16.149Z,10.00
2023-11-24T00:54:44.376Z,10.00
2023-11-24T00:57:11.304Z,10.10
2023-11-24T00:59:38.165Z,10.10
2023-11-24T01:02:05.624Z,10.10
2023-11-24T01:04:32.683Z,10.10
2023-11-24T01:06:59.675Z,10.20
2023-11-24T01:09:26.671Z,10.20
2023-11-24T01:11:55.081Z,10.20
2023-11-24T01:14:22.128Z,10.20
2023-11-24T01:16:49.107Z,10.30
2023-11-24T01:19:15.965Z,10.30
2023-11-24T01:21:42.872Z,10.30
2023-11-24T01:24:09.944Z,10.30
2023-11-24T01:26:38.646Z,10.40
2023-11-24T01:29:07.351Z,10.40
2023-11-24T01:31:34.327Z,10.50
2023-11-24T01:34:01.253Z,10.40
2023-11-24T01:36:28.412Z,10.40
2023-11-24T01:38:56.014Z,10.40
2023-11-24T01:41:22.987Z,10.40
2023-11-24T01:43:59.867Z,10.40
2023-11-24T01:46:28.342Z,10.40
2023-11-24T01:48:56.095Z,10.40
2023-11-24T01:51:24.874Z,10.50
2023-11-24T01:53:52.460Z,10.50
2023-11-24T01:56:19.986Z,10.50
2023-11-24T01:58:47.317Z,10.50
2023-11-24T02:01:14.866Z,10.40
2023-11-24T02:03:43.290Z,10.30
2023-11-24T02:06:12.996Z,10.10
2023-11-24T02:08:40.278Z,10.00
2023-11-24T02:11:07.449Z,9.90
2023-11-24T02:13:34.300Z,9.80
2023-11-24T02:16:01.421Z,9.70
2023-11-24T02:18:28.405Z,9.70
2023-11-24T02:20:56.686Z,9.60
2023-11-24T02:23:24.959Z,9.50
2023-11-24T02:25:51.875Z,9.40
2023-11-24T02:28:18.772Z,9.40
2023-11-24T02:30:45.842Z,9.30
2023-11-24T02:33:12.883Z,9.40
2023-11-24T02:35:40.810Z,9.30
2023-11-24T02:38:07.723Z,9.30
2023-11-24T02:40:35.938Z,9.30
2023-11-24T02:43:02.853Z,9.20
2023-11-24T02:45:29.826Z,9.30
2023-11-24T02:47:56.865Z,9.40
2023-11-24T02:50:23.803Z,9.40
2023-11-24T02:52:50.816Z,9.40
2023-11-24T02:55:19.516Z,9.40
2023-11-24T02:57:48.731Z,9.40
2023-11-24T03:00:19.088Z,9.40
2023-11-24T03:02:47.619Z,9.40
2023-11-24T03:05:15.100Z,9.50
2023-11-24T03:07:42.033Z,9.50
2023-11-24T03:10:09.857Z,9.50
2023-11-24T03:12:36.852Z,9.60
2023-11-24T03:15:06.213Z,9.60
2023-11-24T03:17:33.210Z,9.60
2023-11-24T03:20:00.253Z,9.60
2023-11-24T03:22:27.118Z,9.70
2023-11-24T03:24:54.664Z,9.70
2023-11-24T03:27:21.556Z,9.70
2023-11-24T03:29:48.481Z,9.80
2023-11-24T03:32:16.764Z,9.80
2023-11-24T03:34:43.792Z,9.80
2023-11-24T03:37:10.720Z,9.70
2023-11-24T03:39:37.618Z,9.70
2023-11-24T03:42:04.957Z,9.60
2023-11-24T03:44:31.862Z,9.50
2023-11-24T03:46:58.785Z,9.40
2023-11-24T03:49:26.985Z,9.40
2023-11-24T03:51:53.872Z,9.40
2023-11-24T03:54:23.066Z,9.40
2023-11-24T03:56:50.003Z,9.30
2023-11-24T03:59:16.920Z,9.30
2023-11-24T04:01:44.124Z,9.20
2023-11-24T04:04:11.153Z,9.20
2023-11-24T04:06:39.762Z,9.20
2023-11-24T04:09:06.701Z,9.20
2023-11-24T04:11:33.758Z,9.20
2023-11-24T04:14:00.681Z,9.20
2023-11-24T04:16:27.838Z,9.20
2023-11-24T04:18:54.865Z,9.20
2023-11-24T04:21:21.722Z,9.20
2023-11-24T04:23:50.061Z,9.20
2023-11-24T04:26:16.907Z,9.10
2023-11-24T04:28:43.792Z,9.10
2023-11-24T04:31:10.689Z,9.00
2023-11-24T04:33:37.685Z,9.00
2023-11-24T04:36:05.046Z,8.90
2023-11-24T04:38:33.581Z,8.80
2023-11-24T04:41:03.177Z,8.70
2023-11-24T04:43:30.072Z,8.70
2023-11-24T04:45:57.099Z,8.60
2023-11-24T04:48:24.357Z,8.50
2023-11-24T04:50:51.246Z,8.50
2023-11-24T04:53:18.163Z,8.50
2023-11-24T04:55:45.026Z,8.50
2023-11-24T04:58:13.359Z,8.50
2023-11-24T05:00:40.284Z,8.40
2023-11-24T05:03:09.117Z,8.40
2023-11-24T05:05:36.036Z,8.40
2023-11-24T05:08:04.038Z,8.40
2023-11-24T05:10:31.021Z,8.40
2023-11-24T05:12:57.946Z,8.50
2023-11-24T05:15:26.181Z,8.50
2023-11-24T05:17:53.165Z,8.50
2023-11-24T05:20:20.189Z,8.50
2023-11-24T05:22:47.187Z,8.40
2023-11-24T05:25:14.068Z,8.50
2023-11-24T05:27:40.953Z,8.50
2023-11-24T05:30:10.106Z,8.40
2023-11-24T05:32:38.835Z,8.40
2023-11-24T05:35:06.416Z,8.40
2023-11-24T05:37:33.372Z,8.40
2023-11-24T05:40:02.742Z,8.40
2023-11-24T05:42:29.804Z,8.40
2023-11-24T05:44:56.692Z,8.40
2023-11-24T05:47:23.667Z,8.40
2023-11-24T05:49:53.297Z,8.30
2023-11-24T05:52:21.435Z,8.30
2023-11-24T05:54:49.378Z,8.30
2023-11-24T05:57:16.478Z,8.30
2023-11-24T05:59:44.107Z,8.30
2023-11-24T06:02:11.095Z,8.30
2023-11-24T06:04:39.145Z,8.30
2023-11-24T06:07:07.647Z,8.30
2023-11-24T06:09:34.884Z,8.30
2023-11-24T06:12:02.527Z,8.30
2023-11-24T06:14:29.418Z,8.20
2023-11-24T06:16:56.332Z,8.20
2023-11-24T06:19:23.232Z,8.20
2023-11-24T06:21:50.325Z,8.20
2023-11-24T06:24:18.624Z,8.20
2023-11-24T06:26:45.501Z,8.20
2023-11-24T06:29:12.399Z,8.20
2023-11-24T06:31:39.481Z,8.10
2023-11-24T06:34:06.521Z,8.10
2023-11-24T06:36:35.972Z,8.10
2023-11-24T06:39:04.029Z,8.10
2023-11-24T06:41:32.334Z,8.20
2023-11-24T06:43:59.231Z,8.20
2023-11-24T06:46:26.222Z,8.20
2023-11-24T06:48:54.162Z,8.20
2023-11-24T06:51:21.382Z,8.20
2023-11-24T06:53:48.286Z,8.20
2023-11-24T06:56:15.124Z,8.20
2023-11-24T06:58:43.347Z,8.20
2023-11-24T07:01:11.424Z,8.20
2023-11-24T07:03:39.110Z,8.20
2023-11-24T07:06:07.723Z,8.20
2023-11-24T07:08:34.875Z,8.20
2023-11-24T07:11:01.887Z,8.20
2023-11-24T07:13:29.038Z,8.20
2023-11-24T07:15:57.729Z,8.20
2023-11-24T07:18:24.826Z,8.20
2023-11-24T07:20:52.612Z,8.20
2023-11-24T07:23:20.485Z,8.20
2023-11-24T07:25:48.441Z,8.20
2023-11-24T07:28:16.062Z,8.20
2023-11-24T07:30:43.776Z,8.20
2023-11-24T07:33:12.581Z,8.20
2023-11-24T07:35:39.536Z,8.20
2023-11-24T07:38:06.484Z,8.20
2023-11-24T07:40:33.677Z,8.30
2023-11-24T07:43:00.540Z,8.40
2023-11-24T07:45:27.667Z,8.60
2023-11-24T07:47:54.656Z,8.70
2023-11-24T07:50:22.952Z,8.70
2023-11-24T07:52:49.908Z,8.80
2023-11-24T07:55:16.999Z,8.80
2023-11-24T07:57:44.068Z,8.70
2023-11-24T08:00:14.212Z,8.80
2023-11-24T08:02:42.495Z,8.80
2023-11-24T08:05:09.915Z,8.80
2023-11-24T08:07:38.722Z,8.80
2023-11-24T08:10:06.902Z,8.80
2023-11-24T08:12:33.965Z,8.80
2023-11-24T08:15:01.342Z,8.90
2023-11-24T08:17:28.472Z,8.90
2023-11-24T08:19:55.617Z,8.90
2023-11-24T08:22:22.647Z,8.80
2023-11-24T08:24:51.378Z,8.80
2023-11-24T08:27:19.480Z,8.80
2023-11-24T08:29:46.395Z,8.80
2023-11-24T08:32:13.409Z,8.70
2023-11-24T08:34:40.394Z,8.70
2023-11-24T08:37:07.467Z,8.80
2023-11-24T08:39:34.890Z,8.90
2023-11-24T08:42:04.941Z,9.10
2023-11-24T08:44:31.882Z,9.20
2023-11-24T08:46:58.968Z,9.40
2023-11-24T08:49:25.940Z,9.70
2023-11-24T08:51:52.960Z,10.30
2023-11-24T08:54:19.946Z,11.00
2023-11-24T08:56:46.848Z,11.70
2023-11-24T08:59:15.150Z,12.00
2023-11-24T09:01:42.152Z,12.10
2023-11-24T09:04:11.171Z,11.90
2023-11-24T09:06:39.891Z,11.60
2023-11-24T09:09:10.194Z,11.50
2023-11-24T09:11:37.093Z,11.40
2023-11-24T09:14:05.813Z,11.30
2023-11-24T09:16:35.446Z,11.00
2023-11-24T09:19:02.651Z,10.80
2023-11-24T09:21:32.054Z,10.60
2023-11-24T09:23:58.987Z,10.30
2023-11-24T09:26:25.951Z,10.00
2023-11-24T09:28:53.353Z,9.90
2023-11-24T09:31:20.392Z,9.80
2023-11-24T09:33:49.220Z,9.70
2023-11-24T09:36:16.173Z,9.70
2023-11-24T09:38:45.391Z,9.70
2023-11-24T09:41:12.974Z,9.80
2023-11-24T09:43:40.182Z,9.80
2023-11-24T09:46:08.179Z,9.80
2023-11-24T09:48:36.222Z,9.80
2023-11-24T09:51:07.349Z,9.70
2023-11-24T09:53:34.734Z,9.60
2023-11-24T09:56:02.034Z,9.60
2023-11-24T09:58:29.023Z,9.50
2023-11-24T10:01:01.066Z,9.40
2023-11-24T10:03:29.773Z,9.40
2023-11-24T10:05:56.715Z,9.20
2023-11-24T10:08:25.735Z,9.10
2023-11-24T10:10:52.732Z,8.90
2023-11-24T10:13:19.870Z,8.80
2023-11-24T10:15:52.578Z,8.70
2023-11-24T10:18:20.038Z,8.60
2023-11-24T10:20:50.794Z,8.50
2023-11-24T10:23:17.712Z,8.40
2023-11-24T10:25:48.726Z,8.30
2023-11-24T10:28:19.574Z,8.20
2023-11-24T10:30:47.042Z,8.20
2023-11-24T10:33:34.713Z,8.10
2023-11-24T10:36:05.422Z,8.10
2023-11-24T10:38:32.908Z,8.10
2023-11-24T10:41:04.864Z,8.10
2023-11-24T10:43:32.595Z,8.20
2023-11-24T10:46:04.024Z,8.30
2023-11-24T10:48:35.162Z,8.30
2023-11-24T10:51:09.892Z,8.50
2023-11-24T10:53:43.353Z,8.90
2023-11-24T10:56:14.364Z,9.20
2023-11-24T10:58:42.736Z,9.40
2023-11-24T11:01:10.375Z,9.30
2023-11-24T11:03:37.850Z,9.10
2023-11-24T11:06:11.678Z,9.30
2023-11-24T11:08:42.577Z,9.40
2023-11-24T11:11:50.637Z,9.60
2023-11-24T11:14:19.895Z,9.80
2023-11-24T11:16:47.219Z,10.00
2023-11-24T11:19:30.540Z,10.10
2023-11-24T11:22:00.994Z,10.20
2023-11-24T11:24:31.533Z,10.30
2023-11-24T11:27:00.003Z,10.30
2023-11-24T11:29:29.522Z,10.30
2023-11-24T11:31:57.349Z,10.30
2023-11-24T11:34:30.808Z,10.20
2023-11-24T11:37:06.821Z,10.10
2023-11-24T11:39:58.962Z,10.00
2023-11-24T11:42:33.820Z,10.00
2023-11-24T11:45:10.729Z,9.90
2023-11-24T11:47:50.004Z,9.80
2023-11-24T11:50:21.978Z,9.60
2023-11-24T11:52:52.932Z,9.50
2023-11-24T11:55:23.109Z,9.40
2023-11-24T11:57:54.768Z,9.30
2023-11-24T12:00:26.302Z,9.30
2023-11-24T12:02:53.640Z,9.20
2023-11-24T12:05:23.015Z,9.20
2023-11-24T12:07:50.439Z,9.10
2023-11-24T12:10:17.511Z,9.10
2023-11-24T12:12:47.371Z,9.10
2023-11-24T12:15:18.649Z,9.10
2023-11-24T12:17:46.043Z,9.10
2023-11-24T12:20:15.569Z,9.10
2023-11-24T12:22:43.826Z,9.10
2023-11-24T12:25:13.904Z,9.10
2023-11-24T12:27:43.025Z,9.10
2023-11-24T12:30:14.518Z,9.00
2023-11-24T12:32:43.842Z,8.90
2023-11-24T12:35:12.308Z,8.80
2023-11-24T12:37:45.552Z,8.70
2023-11-24T12:40:13.147Z,8.60
2023-11-24T12:42:41.885Z,8.40
2023-11-24T12:45:09.940Z,8.30
2023-11-24T12:50:12.942Z,8.10
2023-11-24T12:52:42.637Z,8.00
2023-11-24T12:55:11.536Z,7.90
2023-11-24T12:57:40.093Z,8.00
2023-11-24T13:00:11.114Z,7.90
2023-11-24T13:02:39.095Z,7.90
2023-11-24T13:05:10.795Z,7.90
2023-11-24T13:07:38.629Z,7.90
2023-11-24T13:10:10.853Z,7.90
2023-11-24T13:12:38.605Z,7.80
2023-11-24T13:15:10.647Z,7.70
2023-11-24T13:17:39.359Z,7.60
2023-11-24T13:20:12.027Z,7.70
2023-11-24T13:22:39.754Z,7.80
2023-11-24T13:25:09.822Z,7.90
2023-11-24T13:27:37.261Z,7.90
2023-11-24T13:30:07.618Z,8.00
2023-11-24T13:32:34.608Z,8.10
2023-11-24T13:35:01.551Z,8.20
2023-11-24T13:37:31.632Z,8.30
2023-11-24T13:39:58.782Z,8.30
2023-11-24T13:42:26.065Z,8.30
2023-11-24T13:44:52.970Z,8.30
2023-11-24T13:47:20.058Z,8.30
2023-11-24T13:49:47.700Z,8.40
2023-11-24T13:52:16.022Z,8.20
2023-11-24T13:54:44.473Z,8.50
2023-11-24T13:57:12.337Z,8.50
2023-11-24T13:59:39.331Z,8.50
2023-11-24T14:02:07.616Z,8.60
2023-11-24T14:04:36.225Z,8.50
2023-11-24T14:07:03.785Z,8.40
2023-11-24T14:09:32.918Z,8.30
2023-11-24T14:12:01.666Z,8.20
2023-11-24T14:14:28.948Z,8.10
2023-11-24T14:16:57.066Z,8.00
2023-11-24T14:19:24.169Z,8.00
2023-11-24T14:21:51.745Z,7.90
2023-11-24T14:24:18.692Z,7.90
2023-11-24T14:26:46.016Z,7.90
2023-11-24T14:29:14.934Z,7.70
2023-11-24T14:31:42.096Z,7.60
2023-11-24T14:34:09.939Z,7.60
2023-11-24T14:36:39.641Z,7.60
2023-11-24T14:39:06.904Z,7.60
2023-11-24T14:41:33.800Z,7.60
2023-11-24T14:44:00.829Z,7.60
2023-11-24T14:46:30.220Z,7.60
2023-11-24T14:48:57.722Z,7.50
2023-11-24T14:51:27.712Z,7.40
2023-11-24T14:53:55.557Z,7.30
2023-11-24T14:56:24.433Z,7.20
2023-11-24T14:58:52.010Z,7.10
2023-11-24T15:01:24.009Z,7.10
2023-11-24T15:03:54.397Z,7.10
2023-11-24T15:06:26.530Z,7.00
2023-11-24T15:09:01.416Z,7.00
2023-11-24T15:11:38.754Z,7.00
2023-11-24T15:14:14.474Z,7.00
2023-11-24T15:17:01.918Z,6.90
2023-11-24T15:19:30.672Z,6.90
2023-11-24T15:22:03.961Z,6.90
2023-11-24T15:24:32.863Z,6.80
2023-11-24T15:27:01.379Z,6.80
2023-11-24T15:29:28.295Z,6.80
2023-11-24T15:31:55.286Z,6.80
2023-11-24T15:34:25.935Z,6.80
2023-11-24T15:36:54.265Z,6.80
2023-11-24T15:39:36.102Z,6.80
2023-11-24T15:42:05.205Z,6.80
2023-11-24T15:44:34.080Z,6.80
2023-11-24T15:47:03.495Z,6.70
2023-11-24T15:49:30.479Z,6.70
2023-11-24T15:51:58.763Z,6.70
2023-11-24T15:54:27.714Z,6.80
2023-11-24T15:56:55.457Z,6.80
2023-11-24T15:59:25.594Z,6.80
2023-11-24T16:01:53.900Z,6.80
2023-11-24T16:04:23.706Z,6.80
2023-11-24T16:06:56.884Z,6.80
2023-11-24T16:09:27.004Z,6.80
2023-11-24T16:12:01.915Z,6.80
2023-11-24T16:14:30.304Z,6.80
2023-11-24T16:16:57.553Z,6.90
2023-11-24T16:19:24.590Z,6.90
2023-11-24T16:21:51.836Z,6.90
2023-11-24T16:24:19.449Z,6.90
2023-11-24T16:26:47.993Z,7.00
2023-11-24T16:29:15.695Z,7.00
2023-11-24T16:31:46.596Z,7.10
2023-11-24T16:34:16.053Z,7.10
2023-11-24T16:36:43.720Z,7.20
2023-11-24T16:39:11.046Z,7.20
2023-11-24T16:41:37.990Z,7.20
2023-11-24T16:44:07.513Z,7.20
2023-11-24T16:46:34.843Z,7.20
2023-11-24T16:49:02.985Z,7.10
2023-11-24T16:51:29.939Z,7.00
2023-11-24T16:53:56.891Z,6.90
2023-11-24T16:56:25.173Z,6.90
2023-11-24T16:58:54.183Z,6.90
2023-11-24T17:01:22.697Z,6.80
2023-11-24T17:03:49.931Z,6.80
2023-11-24T17:06:16.908Z,6.70
2023-11-24T17:08:43.868Z,6.60
2023-11-24T17:11:12.095Z,6.60
2023-11-24T17:13:39.278Z,6.60
2023-11-24T17:16:07.484Z,6.50
2023-11-24T17:18:37.693Z,6.50
2023-11-24T17:21:05.329Z,6.50
2023-11-24T17:23:33.603Z,6.50
2023-11-24T17:26:00.564Z,6.50
2023-11-24T17:28:27.780Z,6.40
2023-11-24T17:30:54.714Z,6.40
2023-11-24T17:33:21.678Z,6.30
2023-11-24T17:35:49.945Z,6.30
2023-11-24T17:38:19.475Z,6.30
2023-11-24T17:40:48.691Z,6.20
2023-11-24T17:43:15.690Z,6.20
2023-11-24T17:45:42.696Z,6.20
2023-11-24T17:48:11.483Z,6.20
2023-11-24T17:50:38.873Z,6.20
2023-11-24T17:53:07.939Z,6.10
2023-11-24T17:55:35.482Z,6.10
2023-11-24T17:58:02.569Z,6.10
2023-11-24T18:00:33.218Z,6.10
2023-11-24T18:03:00.385Z,6.10
2023-11-24T18:05:27.453Z,6.10
2023-11-24T18:07:54.540Z,6.10
2023-11-24T18:10:23.213Z,6.10
2023-11-24T18:12:54.589Z,6.10
2023-11-24T18:15:21.762Z,6.10
2023-11-24T18:17:48.899Z,6.10
2023-11-24T18:20:16.003Z,6.10
2023-11-24T18:22:42.929Z,6.00
2023-11-24T18:25:10.213Z,6.00
2023-11-24T18:27:39.088Z,5.90
2023-11-24T18:30:11.088Z,5.90
2023-11-24T18:32:38.890Z,5.80
2023-11-24T18:35:09.229Z,5.70
2023-11-24T18:37:36.236Z,5.60
2023-11-24T18:40:04.723Z,5.60
2023-11-24T18:42:31.682Z,5.60
2023-11-24T18:45:00.029Z,5.60
2023-11-24T18:47:27.695Z,5.50
2023-11-24T18:49:54.763Z,5.40
2023-11-24T18:52:22.980Z,5.40
2023-11-24T18:54:52.558Z,5.30
2023-11-24T18:57:19.528Z,5.30
2023-11-24T18:59:46.493Z,5.30
2023-11-24T19:02:16.167Z,5.20
2023-11-24T19:04:43.739Z,5.20
2023-11-24T19:07:12.041Z,5.10
2023-11-24T19:09:39.132Z,5.00
2023-11-24T19:12:07.230Z,4.80
2023-11-24T19:14:35.406Z,5.00
2023-11-24T19:17:02.436Z,4.90
2023-11-24T19:19:30.839Z,4.90
2023-11-24T19:21:57.795Z,4.90
2023-11-24T19:24:24.737Z,4.90
2023-11-24T19:26:51.800Z,4.90
2023-11-24T19:29:18.781Z,4.90
2023-11-24T19:31:45.937Z,4.90
2023-11-24T19:34:12.981Z,4.90
2023-11-24T19:36:42.850Z,4.90
2023-11-24T19:39:12.485Z,4.90
2023-11-24T19:41:39.470Z,4.90
2023-11-24T19:44:06.772Z,4.90
2023-11-24T19:46:34.167Z,4.80
2023-11-24T19:49:01.345Z,4.80
2023-11-24T19:51:28.393Z,4.80
2023-11-24T19:53:56.704Z,4.80
2023-11-24T19:56:23.596Z,4.80
2023-11-24T19:58:50.485Z,4.80
2023-11-24T20:01:20.610Z,4.80
2023-11-24T20:03:47.778Z,4.80
2023-11-24T20:06:14.928Z,4.80
2023-11-24T20:08:41.840Z,4.90
2023-11-24T20:11:10.079Z,4.90
2023-11-24T20:13:37.016Z,4.90
2023-11-24T20:16:04.331Z,4.90
2023-11-24T20:18:32.045Z,4.90
2023-11-24T20:20:58.997Z,5.00
2023-11-24T20:23:26.198Z,5.00
2023-11-24T20:25:53.134Z,5.00
2023-11-24T20:28:21.384Z,5.00
2023-11-24T20:30:49.714Z,5.00
2023-11-24T20:33:16.736Z,5.00
2023-11-24T20:35:44.190Z,5.10
2023-11-24T20:38:11.131Z,5.00
2023-11-24T20:40:38.065Z,5.00
2023-11-24T20:43:05.644Z,5.10
2023-11-24T20:45:34.165Z,5.00
2023-11-24T20:48:01.170Z,5.10
2023-11-24T20:50:28.110Z,5.10
2023-11-24T20:52:55.031Z,5.10
2023-11-24T20:55:22.386Z,5.10
2023-11-24T20:57:49.328Z,5.10
2023-11-24T21:00:17.044Z,5.10
2023-11-24T21:02:46.231Z,5.10
2023-11-24T21:05:13.337Z,5.20
2023-11-24T21:07:40.912Z,5.20
2023-11-24T21:10:09.258Z,5.20
2023-11-24T21:12:42.376Z,5.30
2023-11-24T21:15:15.375Z,5.20
2023-11-24T21:17:42.616Z,5.30
2023-11-24T21:20:14.587Z,5.20
2023-11-24T21:22:41.652Z,5.20
2023-11-24T21:25:08.813Z,5.20
2023-11-24T21:27:35.968Z,5.30
2023-11-24T21:30:03.134Z,5.10
2023-11-24T21:32:31.419Z,5.00
2023-11-24T21:34:59.290Z,4.90
2023-11-24T21:37:29.913Z,4.80
2023-11-24T21:40:01.848Z,4.70
2023-11-24T21:42:29.538Z,4.70
2023-11-24T21:44:59.412Z,4.70
2023-11-24T21:47:26.870Z,4.70
2023-11-24T21:49:56.603Z,4.60
2023-11-24T21:52:23.511Z,4.60
2023-11-24T21:54:51.784Z,4.60
2023-11-24T21:57:18.708Z,4.60
2023-11-24T21:59:45.833Z,4.60
2023-11-24T22:02:12.831Z,4.60
2023-11-24T22:04:39.826Z,4.60
2023-11-24T22:07:06.755Z,4.60
2023-11-24T22:09:34.020Z,4.60
2023-11-24T22:12:02.524Z,4.60
2023-11-24T22:14:29.412Z,4.70
2023-11-24T22:16:56.327Z,4.70
2023-11-24T22:19:23.967Z,4.70
2023-11-24T22:21:51.020Z,4.70
2023-11-24T22:24:17.977Z,4.70
2023-11-24T22:26:44.904Z,4.80
2023-11-24T22:29:13.418Z,4.80
2023-11-24T22:31:40.633Z,4.80
2023-11-24T22:34:08.496Z,4.70
2023-11-24T22:36:35.685Z,4.70
2023-11-24T22:39:02.687Z,4.80
2023-11-24T22:41:29.904Z,4.80
2023-11-24T22:43:57.179Z,4.80
2023-11-24T22:46:26.640Z,4.80
2023-11-24T22:48:54.822Z,4.80
2023-11-24T22:51:23.082Z,4.80
2023-11-24T22:53:50.790Z,4.80
2023-11-24T22:56:19.637Z,4.90
2023-11-24T22:58:48.551Z,4.90
2023-11-24T23:01:22.203Z,4.80
2023-11-24T23:03:50.876Z,4.80
2023-11-24T23:06:18.593Z,4.80
2023-11-24T23:08:46.428Z,4.80
2023-11-24T23:11:19.523Z,4.80
2023-11-24T23:13:48.497Z,4.80
2023-11-24T23:16:16.769Z,4.80
2023-11-24T23:18:45.821Z,4.80
2023-11-24T23:21:15.635Z,4.80
2023-11-24T23:23:46.048Z,4.80
2023-11-24T23:26:12.962Z,4.80
2023-11-24T23:28:40.311Z,4.80
2023-11-24T23:31:08.613Z,4.80
2023-11-24T23:33:37.259Z,4.80
2023-11-24T23:36:04.688Z,4.80
2023-11-24T23:38:33.061Z,4.70
2023-11-24T23:41:03.358Z,4.70
2023-11-24T23:43:30.513Z,4.70
2023-11-24T23:45:58.250Z,4.70
2023-11-24T23:48:25.499Z,4.70
2023-11-24T23:50:53.920Z,4.70
2023-11-24T23:53:22.607Z,4.70
2023-11-24T23:55:51.432Z,4.70
2023-11-24T23:58:18.426Z,4.70
